sensor_id;sensor_type;location;lat;lon;timestamp;P1;durP1;ratioP1;P2;durP2;ratioP2
43435;SDS011;36399;51.444;-2.018;2023-03-01T00:02:25;2.03;;;0.93;;
43435;SDS011;36399;51.444;-2.018;2023-03-01T00:04:51;2.60;;;0.97;;
43435;SDS011;36399;51.444;-2.018;2023-03-01T00:07:17;2.33;;;0.93;;
43435;SDS011;36399;51.444;-2.018;2023-03-01T00:09:43;4.40;;;1.50;;
43435;SDS011;36399;51.444;-2.018;2023-03-01T00:12:11;3.97;;;1.60;;
43435;SDS011;36399;51.444;-2.018;2023-03-01T00:14:37;2.23;;;1.23;;
43435;SDS011;36399;51.444;-2.018;2023-03-01T00:17:03;2.67;;;1.17;;
43435;SDS011;36399;51.444;-2.018;2023-03-01T00:19:29;3.67;;;1.80;;
43435;SDS011;36399;51.444;-2.018;2023-03-01T00:21:55;2.60;;;1.00;;
43435;SDS011;36399;51.444;-2.018;2023-03-01T00:24:21;2.53;;;1.23;;
43435;SDS011;36399;51.444;-2.018;2023-03-01T00:26:47;2.97;;;1.13;;
43435;SDS011;36399;51.444;-2.018;2023-03-01T00:29:13;3.47;;;1.33;;
43435;SDS011;36399;51.444;-2.018;2023-03-01T00:31:39;4.40;;;1.13;;
43435;SDS011;36399;51.444;-2.018;2023-03-01T00:34:05;3.97;;;2.30;;
43435;SDS011;36399;51.444;-2.018;2023-03-01T00:36:32;2.43;;;1.17;;
43435;SDS011;36399;51.444;-2.018;2023-03-01T00:39:00;2.30;;;1.20;;
43435;SDS011;36399;51.444;-2.018;2023-03-01T00:41:28;2.30;;;0.90;;
43435;SDS011;36399;51.444;-2.018;2023-03-01T00:43:54;4.73;;;1.10;;
43435;SDS011;36399;51.444;-2.018;2023-03-01T00:46:21;2.70;;;1.20;;
43435;SDS011;36399;51.444;-2.018;2023-03-01T00:48:50;2.80;;;1.00;;
43435;SDS011;36399;51.444;-2.018;2023-03-01T00:51:17;3.27;;;1.43;;
43435;SDS011;36399;51.444;-2.018;2023-03-01T00:53:45;2.93;;;1.00;;
43435;SDS011;36399;51.444;-2.018;2023-03-01T00:56:12;2.10;;;0.83;;
43435;SDS011;36399;51.444;-2.018;2023-03-01T00:58:39;2.83;;;1.40;;
43435;SDS011;36399;51.444;-2.018;2023-03-01T01:01:16;1.87;;;0.93;;
43435;SDS011;36399;51.444;-2.018;2023-03-01T01:03:48;5.57;;;1.73;;
43435;SDS011;36399;51.444;-2.018;2023-03-01T01:06:29;1.43;;;0.83;;
43435;SDS011;36399;51.444;-2.018;2023-03-01T01:08:57;4.30;;;1.70;;
43435;SDS011;36399;51.444;-2.018;2023-03-01T01:11:24;7.70;;;1.73;;
43435;SDS011;36399;51.444;-2.018;2023-03-01T01:13:52;4.57;;;2.00;;
43435;SDS011;36399;51.444;-2.018;2023-03-01T01:16:19;6.40;;;1.97;;
43435;SDS011;36399;51.444;-2.018;2023-03-01T01:18:46;4.83;;;1.90;;
43435;SDS011;36399;51.444;-2.018;2023-03-01T01:21:13;5.33;;;1.83;;
43435;SDS011;36399;51.444;-2.018;2023-03-01T01:23:41;3.23;;;1.63;;
43435;SDS011;36399;51.444;-2.018;2023-03-01T01:26:09;3.10;;;1.20;;
43435;SDS011;36399;51.444;-2.018;2023-03-01T01:28:37;4.80;;;1.80;;
43435;SDS011;36399;51.444;-2.018;2023-03-01T01:31:04;4.10;;;1.47;;
43435;SDS011;36399;51.444;-2.018;2023-03-01T01:33:31;4.20;;;1.67;;
43435;SDS011;36399;51.444;-2.018;2023-03-01T01:35:57;4.40;;;2.00;;
43435;SDS011;36399;51.444;-2.018;2023-03-01T01:38:23;2.67;;;1.17;;
43435;SDS011;36399;51.444;-2.018;2023-03-01T01:40:50;3.87;;;1.03;;
43435;SDS011;36399;51.444;-2.018;2023-03-01T01:43:27;5.07;;;1.60;;
43435;SDS011;36399;51.444;-2.018;2023-03-01T01:45:57;3.33;;;1.17;;
43435;SDS011;36399;51.444;-2.018;2023-03-01T01:48:28;2.40;;;1.00;;
43435;SDS011;36399;51.444;-2.018;2023-03-01T01:51:11;4.00;;;1.60;;
43435;SDS011;36399;51.444;-2.018;2023-03-01T01:53:45;3.67;;;1.27;;
43435;SDS011;36399;51.444;-2.018;2023-03-01T01:56:16;3.07;;;1.13;;
43435;SDS011;36399;51.444;-2.018;2023-03-01T01:58:43;1.93;;;0.93;;
43435;SDS011;36399;51.444;-2.018;2023-03-01T02:01:10;4.00;;;1.70;;
43435;SDS011;36399;51.444;-2.018;2023-03-01T02:03:37;3.47;;;2.30;;
43435;SDS011;36399;51.444;-2.018;2023-03-01T02:06:17;4.57;;;1.60;;
43435;SDS011;36399;51.444;-2.018;2023-03-01T02:08:47;4.43;;;1.50;;
43435;SDS011;36399;51.444;-2.018;2023-03-01T02:11:16;3.83;;;1.30;;
43435;SDS011;36399;51.444;-2.018;2023-03-01T02:13:44;3.83;;;1.73;;
43435;SDS011;36399;51.444;-2.018;2023-03-01T02:16:14;7.03;;;2.17;;
43435;SDS011;36399;51.444;-2.018;2023-03-01T02:18:41;6.50;;;2.30;;
43435;SDS011;36399;51.444;-2.018;2023-03-01T02:24:12;4.30;;;1.80;;
43435;SDS011;36399;51.444;-2.018;2023-03-01T02:26:42;5.30;;;2.10;;
43435;SDS011;36399;51.444;-2.018;2023-03-01T02:29:12;4.43;;;2.07;;
43435;SDS011;36399;51.444;-2.018;2023-03-01T02:31:38;5.67;;;1.97;;
43435;SDS011;36399;51.444;-2.018;2023-03-01T02:34:20;8.13;;;3.10;;
43435;SDS011;36399;51.444;-2.018;2023-03-01T02:36:49;5.53;;;2.37;;
43435;SDS011;36399;51.444;-2.018;2023-03-01T02:39:21;5.97;;;2.50;;
43435;SDS011;36399;51.444;-2.018;2023-03-01T02:41:52;7.53;;;2.57;;
43435;SDS011;36399;51.444;-2.018;2023-03-01T02:44:20;6.80;;;3.23;;
43435;SDS011;36399;51.444;-2.018;2023-03-01T02:46:48;10.00;;;3.37;;
43435;SDS011;36399;51.444;-2.018;2023-03-01T02:49:28;6.90;;;3.13;;
43435;SDS011;36399;51.444;-2.018;2023-03-01T02:54:28;7.47;;;2.57;;
43435;SDS011;36399;51.444;-2.018;2023-03-01T02:57:05;7.17;;;2.53;;
43435;SDS011;36399;51.444;-2.018;2023-03-01T02:59:33;13.17;;;4.60;;
43435;SDS011;36399;51.444;-2.018;2023-03-01T03:02:05;6.67;;;2.50;;
43435;SDS011;36399;51.444;-2.018;2023-03-01T03:04:46;8.10;;;3.23;;
43435;SDS011;36399;51.444;-2.018;2023-03-01T03:07:12;6.37;;;2.83;;
43435;SDS011;36399;51.444;-2.018;2023-03-01T03:09:38;7.27;;;3.70;;
43435;SDS011;36399;51.444;-2.018;2023-03-01T03:12:04;8.23;;;3.30;;
43435;SDS011;36399;51.444;-2.018;2023-03-01T03:14:30;8.80;;;3.50;;
43435;SDS011;36399;51.444;-2.018;2023-03-01T03:17:00;9.40;;;3.20;;
43435;SDS011;36399;51.444;-2.018;2023-03-01T03:19:26;8.67;;;3.83;;
43435;SDS011;36399;51.444;-2.018;2023-03-01T03:21:52;9.60;;;3.63;;
43435;SDS011;36399;51.444;-2.018;2023-03-01T03:24:18;7.77;;;3.03;;
43435;SDS011;36399;51.444;-2.018;2023-03-01T03:26:44;8.17;;;3.03;;
43435;SDS011;36399;51.444;-2.018;2023-03-01T03:29:09;10.33;;;4.27;;
43435;SDS011;36399;51.444;-2.018;2023-03-01T03:31:35;10.90;;;3.23;;
43435;SDS011;36399;51.444;-2.018;2023-03-01T03:34:01;7.50;;;3.00;;
43435;SDS011;36399;51.444;-2.018;2023-03-01T03:36:27;9.27;;;2.80;;
43435;SDS011;36399;51.444;-2.018;2023-03-01T03:38:54;8.37;;;3.83;;
43435;SDS011;36399;51.444;-2.018;2023-03-01T03:41:19;6.37;;;2.80;;
43435;SDS011;36399;51.444;-2.018;2023-03-01T03:43:45;7.27;;;3.47;;
43435;SDS011;36399;51.444;-2.018;2023-03-01T03:46:11;8.77;;;3.20;;
43435;SDS011;36399;51.444;-2.018;2023-03-01T03:48:41;8.27;;;3.63;;
43435;SDS011;36399;51.444;-2.018;2023-03-01T03:51:10;10.33;;;3.10;;
43435;SDS011;36399;51.444;-2.018;2023-03-01T03:53:40;8.93;;;2.40;;
43435;SDS011;36399;51.444;-2.018;2023-03-01T03:56:06;9.27;;;3.60;;
43435;SDS011;36399;51.444;-2.018;2023-03-01T03:58:32;9.23;;;2.87;;
43435;SDS011;36399;51.444;-2.018;2023-03-01T04:00:58;8.87;;;3.33;;
43435;SDS011;36399;51.444;-2.018;2023-03-01T04:03:26;7.97;;;2.37;;
43435;SDS011;36399;51.444;-2.018;2023-03-01T04:05:53;8.27;;;2.97;;
43435;SDS011;36399;51.444;-2.018;2023-03-01T04:08:20;6.67;;;2.30;;
43435;SDS011;36399;51.444;-2.018;2023-03-01T04:10:49;10.17;;;2.23;;
43435;SDS011;36399;51.444;-2.018;2023-03-01T04:13:18;8.50;;;3.03;;
43435;SDS011;36399;51.444;-2.018;2023-03-01T04:15:50;7.30;;;2.53;;
43435;SDS011;36399;51.444;-2.018;2023-03-01T04:18:17;6.87;;;2.63;;
43435;SDS011;36399;51.444;-2.018;2023-03-01T04:20:44;6.30;;;2.90;;
43435;SDS011;36399;51.444;-2.018;2023-03-01T04:23:12;7.13;;;3.00;;
43435;SDS011;36399;51.444;-2.018;2023-03-01T04:28:29;6.40;;;1.83;;
43435;SDS011;36399;51.444;-2.018;2023-03-01T04:31:02;5.23;;;2.13;;
43435;SDS011;36399;51.444;-2.018;2023-03-01T04:33:39;4.37;;;1.60;;
43435;SDS011;36399;51.444;-2.018;2023-03-01T04:36:06;6.50;;;1.90;;
43435;SDS011;36399;51.444;-2.018;2023-03-01T04:38:34;5.37;;;1.60;;
43435;SDS011;36399;51.444;-2.018;2023-03-01T04:41:03;3.97;;;1.27;;
43435;SDS011;36399;51.444;-2.018;2023-03-01T04:43:31;3.27;;;1.27;;
43435;SDS011;36399;51.444;-2.018;2023-03-01T04:46:01;2.97;;;0.90;;
43435;SDS011;36399;51.444;-2.018;2023-03-01T04:48:29;3.23;;;1.20;;
43435;SDS011;36399;51.444;-2.018;2023-03-01T04:50:56;4.30;;;1.20;;
43435;SDS011;36399;51.444;-2.018;2023-03-01T04:53:22;4.30;;;1.50;;
43435;SDS011;36399;51.444;-2.018;2023-03-01T04:55:47;3.33;;;1.80;;
43435;SDS011;36399;51.444;-2.018;2023-03-01T04:58:13;5.00;;;1.43;;
43435;SDS011;36399;51.444;-2.018;2023-03-01T05:00:39;6.60;;;1.37;;
43435;SDS011;36399;51.444;-2.018;2023-03-01T05:03:05;3.80;;;1.30;;
43435;SDS011;36399;51.444;-2.018;2023-03-01T05:05:32;3.67;;;1.03;;
43435;SDS011;36399;51.444;-2.018;2023-03-01T05:08:02;3.73;;;1.20;;
43435;SDS011;36399;51.444;-2.018;2023-03-01T05:10:30;3.53;;;1.23;;
43435;SDS011;36399;51.444;-2.018;2023-03-01T05:12:58;2.93;;;1.20;;
43435;SDS011;36399;51.444;-2.018;2023-03-01T05:15:25;5.70;;;1.20;;
43435;SDS011;36399;51.444;-2.018;2023-03-01T05:17:52;4.83;;;1.27;;
43435;SDS011;36399;51.444;-2.018;2023-03-01T05:20:20;3.90;;;1.37;;
43435;SDS011;36399;51.444;-2.018;2023-03-01T05:22:52;4.83;;;1.13;;
43435;SDS011;36399;51.444;-2.018;2023-03-01T05:25:21;2.50;;;0.87;;
43435;SDS011;36399;51.444;-2.018;2023-03-01T05:27:47;4.67;;;1.27;;
43435;SDS011;36399;51.444;-2.018;2023-03-01T05:30:13;6.90;;;1.90;;
43435;SDS011;36399;51.444;-2.018;2023-03-01T05:32:44;3.43;;;1.03;;
43435;SDS011;36399;51.444;-2.018;2023-03-01T05:35:12;5.53;;;1.97;;
43435;SDS011;36399;51.444;-2.018;2023-03-01T05:37:42;3.20;;;1.10;;
43435;SDS011;36399;51.444;-2.018;2023-03-01T05:40:14;5.07;;;1.83;;
43435;SDS011;36399;51.444;-2.018;2023-03-01T05:42:43;3.75;;;1.42;;
43435;SDS011;36399;51.444;-2.018;2023-03-01T05:45:20;3.60;;;1.90;;
43435;SDS011;36399;51.444;-2.018;2023-03-01T05:47:47;5.83;;;1.57;;
43435;SDS011;36399;51.444;-2.018;2023-03-01T05:50:15;4.33;;;1.43;;
43435;SDS011;36399;51.444;-2.018;2023-03-01T05:52:47;6.60;;;1.50;;
43435;SDS011;36399;51.444;-2.018;2023-03-01T05:55:18;3.27;;;1.63;;
43435;SDS011;36399;51.444;-2.018;2023-03-01T05:57:46;5.70;;;1.80;;
43435;SDS011;36399;51.444;-2.018;2023-03-01T06:00:13;5.93;;;2.20;;
43435;SDS011;36399;51.444;-2.018;2023-03-01T06:02:41;5.17;;;1.80;;
43435;SDS011;36399;51.444;-2.018;2023-03-01T06:05:08;3.33;;;1.67;;
43435;SDS011;36399;51.444;-2.018;2023-03-01T06:07:35;5.10;;;1.90;;
43435;SDS011;36399;51.444;-2.018;2023-03-01T06:10:02;3.03;;;1.40;;
43435;SDS011;36399;51.444;-2.018;2023-03-01T06:12:31;5.90;;;2.20;;
43435;SDS011;36399;51.444;-2.018;2023-03-01T06:14:59;5.60;;;1.70;;
43435;SDS011;36399;51.444;-2.018;2023-03-01T06:17:25;2.60;;;1.50;;
43435;SDS011;36399;51.444;-2.018;2023-03-01T06:19:52;4.37;;;1.93;;
43435;SDS011;36399;51.444;-2.018;2023-03-01T06:22:18;4.80;;;1.10;;
43435;SDS011;36399;51.444;-2.018;2023-03-01T06:24:44;5.47;;;2.20;;
43435;SDS011;36399;51.444;-2.018;2023-03-01T06:27:09;4.43;;;2.17;;
43435;SDS011;36399;51.444;-2.018;2023-03-01T06:29:36;5.73;;;1.83;;
43435;SDS011;36399;51.444;-2.018;2023-03-01T06:32:02;5.47;;;2.27;;
43435;SDS011;36399;51.444;-2.018;2023-03-01T06:34:28;3.13;;;1.10;;
43435;SDS011;36399;51.444;-2.018;2023-03-01T06:36:54;4.77;;;1.97;;
43435;SDS011;36399;51.444;-2.018;2023-03-01T06:39:20;4.53;;;1.63;;
43435;SDS011;36399;51.444;-2.018;2023-03-01T06:41:46;4.90;;;1.77;;
43435;SDS011;36399;51.444;-2.018;2023-03-01T06:44:12;4.97;;;1.33;;
43435;SDS011;36399;51.444;-2.018;2023-03-01T06:46:39;3.83;;;1.60;;
43435;SDS011;36399;51.444;-2.018;2023-03-01T06:49:06;4.13;;;1.37;;
43435;SDS011;36399;51.444;-2.018;2023-03-01T06:51:36;5.90;;;1.93;;
43435;SDS011;36399;51.444;-2.018;2023-03-01T06:54:03;3.50;;;1.40;;
43435;SDS011;36399;51.444;-2.018;2023-03-01T06:56:30;6.17;;;1.90;;
43435;SDS011;36399;51.444;-2.018;2023-03-01T06:58:56;5.63;;;2.10;;
43435;SDS011;36399;51.444;-2.018;2023-03-01T07:01:22;5.10;;;1.90;;
43435;SDS011;36399;51.444;-2.018;2023-03-01T07:03:48;5.47;;;2.37;;
43435;SDS011;36399;51.444;-2.018;2023-03-01T07:06:14;7.50;;;2.77;;
43435;SDS011;36399;51.444;-2.018;2023-03-01T07:08:40;5.83;;;2.63;;
43435;SDS011;36399;51.444;-2.018;2023-03-01T07:11:06;6.23;;;2.43;;
43435;SDS011;36399;51.444;-2.018;2023-03-01T07:13:32;7.27;;;2.87;;
43435;SDS011;36399;51.444;-2.018;2023-03-01T07:15:58;4.77;;;1.90;;
43435;SDS011;36399;51.444;-2.018;2023-03-01T07:18:24;4.90;;;2.37;;
43435;SDS011;36399;51.444;-2.018;2023-03-01T07:20:50;5.40;;;1.87;;
43435;SDS011;36399;51.444;-2.018;2023-03-01T07:23:16;5.37;;;2.10;;
43435;SDS011;36399;51.444;-2.018;2023-03-01T07:25:42;4.33;;;1.90;;
43435;SDS011;36399;51.444;-2.018;2023-03-01T07:28:08;0.03;;;0.03;;
43435;SDS011;36399;51.444;-2.018;2023-03-01T07:30:34;0.20;;;0.20;;
43435;SDS011;36399;51.444;-2.018;2023-03-01T07:33:00;0.00;;;0.00;;
43435;SDS011;36399;51.444;-2.018;2023-03-01T07:35:26;0.00;;;0.00;;
43435;SDS011;36399;51.444;-2.018;2023-03-01T07:37:52;0.10;;;0.10;;
43435;SDS011;36399;51.444;-2.018;2023-03-01T07:40:19;0.30;;;0.30;;
43435;SDS011;36399;51.444;-2.018;2023-03-01T07:42:45;2.90;;;1.20;;
43435;SDS011;36399;51.444;-2.018;2023-03-01T07:45:11;0.60;;;0.30;;
43435;SDS011;36399;51.444;-2.018;2023-03-01T07:47:39;0.10;;;0.10;;
43435;SDS011;36399;51.444;-2.018;2023-03-01T07:50:05;0.00;;;0.00;;
43435;SDS011;36399;51.444;-2.018;2023-03-01T07:52:31;0.20;;;0.20;;
43435;SDS011;36399;51.444;-2.018;2023-03-01T07:54:57;1.60;;;1.10;;
43435;SDS011;36399;51.444;-2.018;2023-03-01T07:57:23;0.10;;;0.10;;
43435;SDS011;36399;51.444;-2.018;2023-03-01T07:59:49;0.50;;;0.50;;
43435;SDS011;36399;51.444;-2.018;2023-03-01T08:02:15;0.57;;;0.57;;
43435;SDS011;36399;51.444;-2.018;2023-03-01T08:04:41;0.47;;;0.47;;
43435;SDS011;36399;51.444;-2.018;2023-03-01T08:07:08;1.23;;;1.13;;
43435;SDS011;36399;51.444;-2.018;2023-03-01T08:09:34;0.60;;;0.60;;
43435;SDS011;36399;51.444;-2.018;2023-03-01T08:12:02;0.23;;;0.23;;
43435;SDS011;36399;51.444;-2.018;2023-03-01T08:14:30;0.10;;;0.10;;
43435;SDS011;36399;51.444;-2.018;2023-03-01T08:16:57;0.73;;;0.73;;
43435;SDS011;36399;51.444;-2.018;2023-03-01T08:19:23;0.00;;;0.00;;
43435;SDS011;36399;51.444;-2.018;2023-03-01T08:21:50;0.03;;;0.03;;
43435;SDS011;36399;51.444;-2.018;2023-03-01T08:24:16;0.00;;;0.00;;
43435;SDS011;36399;51.444;-2.018;2023-03-01T08:26:42;0.97;;;0.97;;
43435;SDS011;36399;51.444;-2.018;2023-03-01T08:29:08;0.70;;;0.67;;
43435;SDS011;36399;51.444;-2.018;2023-03-01T08:31:35;0.03;;;0.03;;
43435;SDS011;36399;51.444;-2.018;2023-03-01T08:34:04;0.33;;;0.33;;
43435;SDS011;36399;51.444;-2.018;2023-03-01T08:36:34;0.00;;;0.00;;
43435;SDS011;36399;51.444;-2.018;2023-03-01T08:39:02;0.00;;;0.00;;
43435;SDS011;36399;51.444;-2.018;2023-03-01T08:41:29;1.50;;;1.40;;
43435;SDS011;36399;51.444;-2.018;2023-03-01T08:43:56;0.00;;;0.00;;
43435;SDS011;36399;51.444;-2.018;2023-03-01T08:46:26;0.10;;;0.10;;
43435;SDS011;36399;51.444;-2.018;2023-03-01T08:48:56;0.07;;;0.07;;
43435;SDS011;36399;51.444;-2.018;2023-03-01T08:51:23;0.30;;;0.30;;
43435;SDS011;36399;51.444;-2.018;2023-03-01T08:53:49;0.10;;;0.10;;
43435;SDS011;36399;51.444;-2.018;2023-03-01T08:56:16;0.20;;;0.20;;
43435;SDS011;36399;51.444;-2.018;2023-03-01T08:58:44;0.50;;;0.50;;
43435;SDS011;36399;51.444;-2.018;2023-03-01T09:01:12;0.10;;;0.10;;
43435;SDS011;36399;51.444;-2.018;2023-03-01T09:03:40;0.10;;;0.10;;
43435;SDS011;36399;51.444;-2.018;2023-03-01T09:06:07;0.10;;;0.10;;
43435;SDS011;36399;51.444;-2.018;2023-03-01T09:08:34;0.10;;;0.10;;
43435;SDS011;36399;51.444;-2.018;2023-03-01T09:11:02;0.00;;;0.00;;
43435;SDS011;36399;51.444;-2.018;2023-03-01T09:13:29;0.00;;;0.00;;
43435;SDS011;36399;51.444;-2.018;2023-03-01T09:15:58;0.27;;;0.27;;
43435;SDS011;36399;51.444;-2.018;2023-03-01T09:18:25;0.20;;;0.20;;
43435;SDS011;36399;51.444;-2.018;2023-03-01T09:20:52;0.40;;;0.40;;
43435;SDS011;36399;51.444;-2.018;2023-03-01T09:23:20;0.73;;;0.73;;
43435;SDS011;36399;51.444;-2.018;2023-03-01T09:25:46;1.77;;;0.73;;
43435;SDS011;36399;51.444;-2.018;2023-03-01T09:28:13;0.00;;;0.00;;
43435;SDS011;36399;51.444;-2.018;2023-03-01T09:30:38;0.10;;;0.10;;
43435;SDS011;36399;51.444;-2.018;2023-03-01T09:33:05;0.00;;;0.00;;
43435;SDS011;36399;51.444;-2.018;2023-03-01T09:35:31;0.10;;;0.10;;
43435;SDS011;36399;51.444;-2.018;2023-03-01T09:37:57;0.20;;;0.20;;
43435;SDS011;36399;51.444;-2.018;2023-03-01T09:40:24;0.00;;;0.00;;
43435;SDS011;36399;51.444;-2.018;2023-03-01T09:45:21;0.10;;;0.10;;
43435;SDS011;36399;51.444;-2.018;2023-03-01T09:47:53;0.00;;;0.00;;
43435;SDS011;36399;51.444;-2.018;2023-03-01T09:50:21;0.00;;;0.00;;
43435;SDS011;36399;51.444;-2.018;2023-03-01T09:52:52;0.00;;;0.00;;
43435;SDS011;36399;51.444;-2.018;2023-03-01T09:55:29;0.00;;;0.00;;
43435;SDS011;36399;51.444;-2.018;2023-03-01T09:58:06;1.20;;;0.40;;
43435;SDS011;36399;51.444;-2.018;2023-03-01T10:00:51;2.10;;;0.40;;
43435;SDS011;36399;51.444;-2.018;2023-03-01T10:03:27;1.67;;;0.70;;
43435;SDS011;36399;51.444;-2.018;2023-03-01T10:06:09;2.97;;;0.70;;
43435;SDS011;36399;51.444;-2.018;2023-03-01T10:22:00;2.53;;;1.10;;
43435;SDS011;36399;51.444;-2.018;2023-03-01T10:24:38;2.07;;;1.00;;
43435;SDS011;36399;51.444;-2.018;2023-03-01T10:27:09;6.33;;;0.80;;
43435;SDS011;36399;51.444;-2.018;2023-03-01T10:32:21;2.47;;;0.83;;
43435;SDS011;36399;51.444;-2.018;2023-03-01T10:34:47;1.83;;;0.80;;
43435;SDS011;36399;51.444;-2.018;2023-03-01T10:37:17;3.20;;;0.87;;
43435;SDS011;36399;51.444;-2.018;2023-03-01T10:42:54;2.50;;;1.03;;
43435;SDS011;36399;51.444;-2.018;2023-03-01T10:50:34;3.77;;;0.70;;
43435;SDS011;36399;51.444;-2.018;2023-03-01T10:53:01;2.00;;;0.73;;
43435;SDS011;36399;51.444;-2.018;2023-03-01T10:58:11;1.92;;;0.95;;
43435;SDS011;36399;51.444;-2.018;2023-03-01T11:00:47;1.33;;;0.60;;
43435;SDS011;36399;51.444;-2.018;2023-03-01T11:03:18;1.20;;;0.63;;
43435;SDS011;36399;51.444;-2.018;2023-03-01T11:05:51;1.67;;;0.40;;
43435;SDS011;36399;51.444;-2.018;2023-03-01T11:08:42;1.33;;;0.60;;
43435;SDS011;36399;51.444;-2.018;2023-03-01T11:11:21;1.00;;;0.50;;
43435;SDS011;36399;51.444;-2.018;2023-03-01T11:14:03;1.70;;;0.80;;
43435;SDS011;36399;51.444;-2.018;2023-03-01T11:16:37;2.93;;;1.10;;
43435;SDS011;36399;51.444;-2.018;2023-03-01T11:21:34;1.37;;;0.73;;
43435;SDS011;36399;51.444;-2.018;2023-03-01T11:24:20;1.77;;;0.80;;
43435;SDS011;36399;51.444;-2.018;2023-03-01T11:27:13;1.20;;;0.47;;
43435;SDS011;36399;51.444;-2.018;2023-03-01T11:29:41;3.90;;;0.70;;
43435;SDS011;36399;51.444;-2.018;2023-03-01T11:32:13;0.77;;;0.30;;
43435;SDS011;36399;51.444;-2.018;2023-03-01T11:40:26;2.30;;;0.90;;
43435;SDS011;36399;51.444;-2.018;2023-03-01T11:43:02;1.27;;;0.50;;
43435;SDS011;36399;51.444;-2.018;2023-03-01T11:51:38;1.37;;;0.53;;
43435;SDS011;36399;51.444;-2.018;2023-03-01T11:56:57;2.20;;;0.67;;
43435;SDS011;36399;51.444;-2.018;2023-03-01T12:08:12;2.40;;;0.70;;
43435;SDS011;36399;51.444;-2.018;2023-03-01T12:11:03;1.80;;;0.70;;
43435;SDS011;36399;51.444;-2.018;2023-03-01T12:24:37;3.87;;;1.03;;
43435;SDS011;36399;51.444;-2.018;2023-03-01T12:27:19;3.13;;;0.80;;
43435;SDS011;36399;51.444;-2.018;2023-03-01T12:43:44;3.63;;;1.00;;
43435;SDS011;36399;51.444;-2.018;2023-03-01T12:49:41;2.90;;;1.10;;
43435;SDS011;36399;51.444;-2.018;2023-03-01T12:52:19;4.15;;;1.63;;
43435;SDS011;36399;51.444;-2.018;2023-03-01T12:54:48;2.37;;;1.30;;
43435;SDS011;36399;51.444;-2.018;2023-03-01T12:57:28;4.30;;;1.73;;
43435;SDS011;36399;51.444;-2.018;2023-03-01T13:05:37;2.85;;;1.60;;
43435;SDS011;36399;51.444;-2.018;2023-03-01T13:08:16;4.00;;;1.30;;
43435;SDS011;36399;51.444;-2.018;2023-03-01T13:11:15;3.13;;;1.40;;
43435;SDS011;36399;51.444;-2.018;2023-03-01T13:13:44;2.23;;;1.10;;
43435;SDS011;36399;51.444;-2.018;2023-03-01T13:16:20;3.13;;;1.30;;
43435;SDS011;36399;51.444;-2.018;2023-03-01T13:18:46;3.37;;;1.27;;
43435;SDS011;36399;51.444;-2.018;2023-03-01T13:21:12;1.53;;;0.80;;
43435;SDS011;36399;51.444;-2.018;2023-03-01T13:23:56;3.83;;;1.20;;
43435;SDS011;36399;51.444;-2.018;2023-03-01T13:26:21;2.77;;;1.17;;
43435;SDS011;36399;51.444;-2.018;2023-03-01T13:28:52;2.30;;;0.93;;
43435;SDS011;36399;51.444;-2.018;2023-03-01T13:33:53;10.30;;;1.70;;
43435;SDS011;36399;51.444;-2.018;2023-03-01T13:38:57;2.37;;;1.10;;
43435;SDS011;36399;51.444;-2.018;2023-03-01T13:49:36;3.50;;;1.60;;
43435;SDS011;36399;51.444;-2.018;2023-03-01T13:52:06;2.97;;;1.40;;
43435;SDS011;36399;51.444;-2.018;2023-03-01T13:54:46;3.70;;;1.80;;
43435;SDS011;36399;51.444;-2.018;2023-03-01T13:57:12;3.60;;;1.67;;
43435;SDS011;36399;51.444;-2.018;2023-03-01T13:59:55;3.07;;;1.40;;
43435;SDS011;36399;51.444;-2.018;2023-03-01T14:02:21;3.43;;;1.43;;
43435;SDS011;36399;51.444;-2.018;2023-03-01T14:04:57;2.83;;;1.33;;
43435;SDS011;36399;51.444;-2.018;2023-03-01T14:07:25;2.53;;;1.30;;
43435;SDS011;36399;51.444;-2.018;2023-03-01T14:09:59;3.77;;;1.50;;
43435;SDS011;36399;51.444;-2.018;2023-03-01T14:17:55;1.90;;;0.70;;
43435;SDS011;36399;51.444;-2.018;2023-03-01T14:20:33;2.30;;;0.80;;
43435;SDS011;36399;51.444;-2.018;2023-03-01T14:23:20;1.10;;;0.57;;
43435;SDS011;36399;51.444;-2.018;2023-03-01T14:25:51;1.17;;;0.70;;
43435;SDS011;36399;51.444;-2.018;2023-03-01T14:28:26;1.93;;;0.70;;
43435;SDS011;36399;51.444;-2.018;2023-03-01T14:30:58;2.43;;;1.00;;
43435;SDS011;36399;51.444;-2.018;2023-03-01T14:33:34;2.37;;;1.10;;
43435;SDS011;36399;51.444;-2.018;2023-03-01T14:36:08;1.63;;;0.80;;
43435;SDS011;36399;51.444;-2.018;2023-03-01T14:38:42;2.00;;;0.97;;
43435;SDS011;36399;51.444;-2.018;2023-03-01T14:41:14;2.03;;;0.90;;
43435;SDS011;36399;51.444;-2.018;2023-03-01T14:43:45;2.27;;;1.20;;
43435;SDS011;36399;51.444;-2.018;2023-03-01T14:46:23;2.97;;;1.03;;
43435;SDS011;36399;51.444;-2.018;2023-03-01T14:48:53;1.63;;;0.53;;
43435;SDS011;36399;51.444;-2.018;2023-03-01T14:51:21;1.63;;;0.97;;
43435;SDS011;36399;51.444;-2.018;2023-03-01T14:53:48;1.97;;;1.13;;
43435;SDS011;36399;51.444;-2.018;2023-03-01T14:56:16;2.80;;;1.17;;
43435;SDS011;36399;51.444;-2.018;2023-03-01T14:58:43;2.33;;;1.20;;
43435;SDS011;36399;51.444;-2.018;2023-03-01T15:01:10;1.33;;;0.70;;
43435;SDS011;36399;51.444;-2.018;2023-03-01T15:03:42;2.57;;;1.10;;
43435;SDS011;36399;51.444;-2.018;2023-03-01T15:06:09;2.30;;;0.70;;
43435;SDS011;36399;51.444;-2.018;2023-03-01T15:08:41;1.43;;;0.70;;
43435;SDS011;36399;51.444;-2.018;2023-03-01T15:13:39;2.23;;;0.80;;
43435;SDS011;36399;51.444;-2.018;2023-03-01T15:16:11;1.50;;;0.80;;
43435;SDS011;36399;51.444;-2.018;2023-03-01T15:18:46;1.58;;;1.10;;
43435;SDS011;36399;51.444;-2.018;2023-03-01T15:21:24;1.73;;;0.57;;
43435;SDS011;36399;51.444;-2.018;2023-03-01T15:23:55;2.63;;;0.90;;
43435;SDS011;36399;51.444;-2.018;2023-03-01T15:26:30;4.07;;;0.90;;
43435;SDS011;36399;51.444;-2.018;2023-03-01T15:29:00;0.90;;;0.57;;
43435;SDS011;36399;51.444;-2.018;2023-03-01T15:31:31;2.07;;;0.80;;
43435;SDS011;36399;51.444;-2.018;2023-03-01T15:36:49;3.40;;;1.03;;
43435;SDS011;36399;51.444;-2.018;2023-03-01T15:39:52;3.13;;;1.17;;
43435;SDS011;36399;51.444;-2.018;2023-03-01T15:47:41;3.87;;;1.93;;
43435;SDS011;36399;51.444;-2.018;2023-03-01T15:50:18;3.10;;;1.17;;
43435;SDS011;36399;51.444;-2.018;2023-03-01T15:52:46;7.25;;;1.70;;
43435;SDS011;36399;51.444;-2.018;2023-03-01T15:55:15;3.13;;;1.47;;
43435;SDS011;36399;51.444;-2.018;2023-03-01T15:57:41;5.67;;;1.60;;
43435;SDS011;36399;51.444;-2.018;2023-03-01T16:00:10;1.77;;;0.90;;
43435;SDS011;36399;51.444;-2.018;2023-03-01T16:02:41;1.60;;;0.73;;
43435;SDS011;36399;51.444;-2.018;2023-03-01T16:05:15;5.07;;;1.17;;
43435;SDS011;36399;51.444;-2.018;2023-03-01T16:07:44;3.13;;;1.00;;
43435;SDS011;36399;51.444;-2.018;2023-03-01T16:10:10;1.67;;;0.93;;
43435;SDS011;36399;51.444;-2.018;2023-03-01T16:12:36;1.83;;;0.60;;
43435;SDS011;36399;51.444;-2.018;2023-03-01T16:15:05;1.30;;;0.60;;
43435;SDS011;36399;51.444;-2.018;2023-03-01T16:17:38;2.80;;;1.17;;
43435;SDS011;36399;51.444;-2.018;2023-03-01T16:20:04;1.33;;;0.23;;
43435;SDS011;36399;51.444;-2.018;2023-03-01T16:22:31;1.03;;;0.43;;
43435;SDS011;36399;51.444;-2.018;2023-03-01T16:25:00;1.57;;;1.00;;
43435;SDS011;36399;51.444;-2.018;2023-03-01T16:27:27;4.33;;;1.07;;
43435;SDS011;36399;51.444;-2.018;2023-03-01T16:29:54;3.90;;;1.10;;
43435;SDS011;36399;51.444;-2.018;2023-03-01T16:32:20;6.80;;;1.80;;
43435;SDS011;36399;51.444;-2.018;2023-03-01T16:34:46;4.10;;;1.20;;
43435;SDS011;36399;51.444;-2.018;2023-03-01T16:37:14;2.20;;;1.30;;
43435;SDS011;36399;51.444;-2.018;2023-03-01T16:39:41;1.77;;;0.90;;
43435;SDS011;36399;51.444;-2.018;2023-03-01T16:42:07;1.27;;;0.53;;
43435;SDS011;36399;51.444;-2.018;2023-03-01T16:44:33;6.17;;;1.53;;
43435;SDS011;36399;51.444;-2.018;2023-03-01T16:46:59;4.27;;;1.37;;
43435;SDS011;36399;51.444;-2.018;2023-03-01T16:49:25;3.40;;;0.80;;
43435;SDS011;36399;51.444;-2.018;2023-03-01T16:51:53;1.93;;;0.60;;
43435;SDS011;36399;51.444;-2.018;2023-03-01T16:54:19;2.83;;;0.73;;